createdAt,value
2022-08-24T00:02:46.575Z,7.87
2022-08-24T00:07:51.045Z,8.57
2022-08-24T00:12:54.029Z,7.40
2022-08-24T00:17:58.479Z,7.50
2022-08-24T00:23:01.806Z,8.43
2022-08-24T00:28:05.428Z,7.70
2022-08-24T00:33:09.772Z,8.70
2022-08-24T00:38:12.794Z,8.60
2022-08-24T00:43:18.516Z,8.80
2022-08-24T00:48:26.544Z,8.77
2022-08-24T00:53:34.394Z,9.70
2022-08-24T00:58:42.939Z,9.30
2022-08-24T01:03:47.527Z,9.47
2022-08-24T01:08:56.563Z,9.53
2022-08-24T01:14:02.695Z,9.07
2022-08-24T01:19:14.988Z,9.20
2022-08-24T01:24:19.666Z,9.57
2022-08-24T01:29:26.390Z,9.30
2022-08-24T01:34:29.510Z,9.63
2022-08-24T01:39:37.830Z,9.90
2022-08-24T01:44:42.733Z,9.73
2022-08-24T01:49:50.267Z,8.57
2022-08-24T01:54:58.470Z,8.43
2022-08-24T02:00:02.479Z,9.60
2022-08-24T02:05:26.090Z,9.30
2022-08-24T02:10:31.970Z,9.20
2022-08-24T02:15:40.322Z,8.83
2022-08-24T02:20:46.154Z,8.77
2022-08-24T02:25:50.946Z,9.07
2022-08-24T02:30:54.374Z,9.87
2022-08-24T02:35:57.579Z,9.40
2022-08-24T02:41:02.109Z,10.10
2022-08-24T02:46:06.654Z,9.00
2022-08-24T02:51:21.809Z,9.70
2022-08-24T02:56:26.458Z,8.60
2022-08-24T03:01:30.801Z,8.93
2022-08-24T03:06:35.189Z,9.60
2022-08-24T03:11:39.755Z,8.83
2022-08-24T03:16:47.702Z,9.03
2022-08-24T03:21:50.668Z,9.00
2022-08-24T03:26:55.279Z,9.00
2022-08-24T03:31:58.457Z,9.00
2022-08-24T03:37:03.025Z,10.30
2022-08-24T03:42:07.942Z,9.90
2022-08-24T03:47:11.740Z,9.90
2022-08-24T03:52:15.091Z,10.53
2022-08-24T03:57:21.456Z,9.23
2022-08-24T04:02:31.125Z,9.77
2022-08-24T04:07:35.995Z,10.90
2022-08-24T04:12:40.549Z,9.90
2022-08-24T04:17:44.065Z,9.60
2022-08-24T04:22:47.068Z,10.47
2022-08-24T04:27:51.612Z,9.40
2022-08-24T04:32:54.613Z,9.37
2022-08-24T04:37:57.710Z,8.97
2022-08-24T04:43:02.446Z,9.03
2022-08-24T04:48:07.856Z,8.53
2022-08-24T04:53:13.615Z,10.50
2022-08-24T04:58:21.043Z,10.13
2022-08-24T05:03:25.145Z,10.17
2022-08-24T05:08:28.201Z,10.40
2022-08-24T05:13:32.936Z,10.50
2022-08-24T05:18:36.164Z,10.97
2022-08-24T05:23:43.400Z,11.07
2022-08-24T05:28:50.510Z,10.67
2022-08-24T05:33:53.692Z,11.20
2022-08-24T05:39:00.689Z,11.17
2022-08-24T05:44:06.731Z,11.10
2022-08-24T05:49:11.332Z,11.93
2022-08-24T05:54:14.777Z,10.77
2022-08-24T05:59:42.269Z,10.20
2022-08-24T06:04:51.767Z,11.83
2022-08-24T06:10:06.299Z,11.30
2022-08-24T06:15:22.135Z,11.27
2022-08-24T06:20:26.269Z,12.03
2022-08-24T06:25:47.006Z,12.17
2022-08-24T06:30:51.675Z,12.43
2022-08-24T06:36:01.599Z,13.00
2022-08-24T06:41:07.527Z,13.10
2022-08-24T06:46:13.054Z,12.07
2022-08-24T06:51:22.627Z,12.13
2022-08-24T06:56:25.773Z,12.40
2022-08-24T07:01:32.365Z,13.67
2022-08-24T07:06:37.930Z,12.00
2022-08-24T07:11:41.772Z,11.17
2022-08-24T07:16:47.224Z,11.90
2022-08-24T07:21:50.464Z,12.03
2022-08-24T07:26:53.843Z,12.10
2022-08-24T07:31:58.833Z,13.20
2022-08-24T07:37:11.768Z,13.30
2022-08-24T07:42:26.884Z,13.20
2022-08-24T07:47:40.521Z,13.40
2022-08-24T07:53:00.667Z,11.70
2022-08-24T07:58:04.354Z,12.77
2022-08-24T08:03:10.299Z,11.70
2022-08-24T08:08:15.712Z,11.80
2022-08-24T08:13:19.760Z,11.80
2022-08-24T08:18:26.133Z,12.70
2022-08-24T08:23:48.560Z,12.20
2022-08-24T08:29:01.990Z,13.10
2022-08-24T08:34:10.061Z,13.80
2022-08-24T08:39:15.869Z,14.00
2022-08-24T08:44:34.533Z,13.50
2022-08-24T08:50:01.599Z,13.70
2022-08-24T08:55:21.636Z,14.03
2022-08-24T09:00:27.036Z,13.10
2022-08-24T09:06:05.211Z,12.97
2022-08-24T09:11:23.273Z,11.20
2022-08-24T09:16:46.137Z,12.90
2022-08-24T09:22:04.763Z,12.80
2022-08-24T09:27:21.045Z,11.63
2022-08-24T09:32:39.120Z,10.70
2022-08-24T09:37:59.300Z,11.98
2022-08-24T09:43:38.581Z,11.63
2022-08-24T09:49:14.137Z,10.47
2022-08-24T09:54:41.474Z,11.70
2022-08-24T10:00:11.698Z,11.57
2022-08-24T10:05:30.465Z,10.70
2022-08-24T10:10:45.767Z,11.20
2022-08-24T10:15:59.009Z,11.93
2022-08-24T10:21:13.588Z,11.87
2022-08-24T10:26:25.580Z,11.27
2022-08-24T10:31:35.415Z,11.73
2022-08-24T10:37:05.137Z,10.80
2022-08-24T10:43:02.722Z,12.45
2022-08-24T10:48:33.263Z,11.63
2022-08-24T10:53:38.254Z,11.25
2022-08-24T10:58:52.784Z,11.10
2022-08-24T11:04:00.254Z,11.23
2022-08-24T11:09:08.203Z,10.83
2022-08-24T11:14:26.647Z,10.38
2022-08-24T11:19:35.084Z,13.37
2022-08-24T11:24:44.349Z,14.23
2022-08-24T11:30:06.749Z,14.73
2022-08-24T11:35:19.801Z,15.10
2022-08-24T11:40:28.942Z,14.23
2022-08-24T11:45:38.947Z,14.13
2022-08-24T11:50:46.072Z,13.35
2022-08-24T11:55:57.525Z,12.82
2022-08-24T12:01:13.308Z,12.57
2022-08-24T12:06:31.479Z,12.07
2022-08-24T12:11:44.401Z,13.43
2022-08-24T12:16:54.715Z,11.95
2022-08-24T12:22:00.813Z,11.68
2022-08-24T12:27:10.714Z,12.50
2022-08-24T12:32:19.600Z,11.85
2022-08-24T12:37:30.137Z,14.85
2022-08-24T12:42:42.244Z,13.75
2022-08-24T12:47:51.824Z,13.75
2022-08-24T12:53:20.442Z,13.57
2022-08-24T12:58:54.409Z,12.35
2022-08-24T13:04:17.231Z,12.48
2022-08-24T13:09:33.693Z,12.93
2022-08-24T13:14:37.572Z,11.35
2022-08-24T13:19:45.299Z,11.10
2022-08-24T13:24:54.560Z,10.55
2022-08-24T13:30:18.728Z,11.30
2022-08-24T13:35:54.703Z,9.93
2022-08-24T13:41:02.548Z,10.20
2022-08-24T13:46:18.546Z,10.73
2022-08-24T13:51:40.850Z,10.82
2022-08-24T13:57:07.437Z,10.13
2022-08-24T14:02:28.710Z,10.30
2022-08-24T14:07:46.337Z,18.08
2022-08-24T14:13:00.896Z,11.65
2022-08-24T14:18:11.815Z,12.00
2022-08-24T14:23:28.143Z,10.95
2022-08-24T14:28:44.612Z,11.32
2022-08-24T14:34:08.848Z,10.85
2022-08-24T14:39:25.746Z,10.98
2022-08-24T14:45:02.493Z,11.35
2022-08-24T14:50:13.083Z,10.95
2022-08-24T14:55:24.921Z,11.00
2022-08-24T15:00:48.415Z,11.00
2022-08-24T15:06:26.321Z,11.27
2022-08-24T15:11:31.757Z,11.88
2022-08-24T15:16:53.195Z,11.15
2022-08-24T15:22:02.909Z,10.57
2022-08-24T15:27:16.600Z,12.85
2022-08-24T15:32:20.106Z,12.32
2022-08-24T15:37:30.463Z,14.35
2022-08-24T15:42:38.286Z,15.60
2022-08-24T15:47:48.614Z,15.68
2022-08-24T15:53:00.179Z,15.65
2022-08-24T15:58:24.985Z,14.73
2022-08-24T16:03:44.145Z,16.05
2022-08-24T16:08:57.566Z,16.38
2022-08-24T16:14:03.264Z,14.70
2022-08-24T16:19:08.951Z,16.13
2022-08-24T16:24:25.329Z,15.65
2022-08-24T16:29:55.695Z,15.77
2022-08-24T16:35:18.636Z,15.45
2022-08-24T16:40:22.437Z,16.80
2022-08-24T16:45:26.972Z,16.00
2022-08-24T16:50:29.989Z,16.10
2022-08-24T16:55:33.333Z,15.65
2022-08-24T17:00:37.851Z,15.68
2022-08-24T17:05:41.028Z,16.33
2022-08-24T17:10:44.038Z,14.75
2022-08-24T17:15:53.216Z,13.15
2022-08-24T17:20:56.825Z,12.07
2022-08-24T17:25:59.923Z,12.68
2022-08-24T17:31:06.127Z,11.88
2022-08-24T17:36:15.897Z,12.75
2022-08-24T17:41:19.170Z,13.00
2022-08-24T17:46:24.261Z,12.23
2022-08-24T17:51:27.388Z,12.25
2022-08-24T17:56:37.752Z,12.23
2022-08-24T18:01:45.683Z,13.45
2022-08-24T18:06:49.478Z,12.52
2022-08-24T18:11:52.525Z,14.38
2022-08-24T18:16:59.527Z,14.30
2022-08-24T18:22:04.609Z,14.85
2022-08-24T18:27:11.845Z,14.07
2022-08-24T18:32:16.234Z,15.15
2022-08-24T18:37:19.420Z,13.98
2022-08-24T18:42:24.445Z,13.68
2022-08-24T18:47:29.198Z,13.43
2022-08-24T18:52:32.524Z,13.82
2022-08-24T18:57:35.949Z,13.83
2022-08-24T19:02:40.772Z,14.82
2022-08-24T19:07:46.380Z,13.63
2022-08-24T19:12:52.357Z,13.80
2022-08-24T19:17:56.809Z,14.63
2022-08-24T19:23:06.260Z,13.87
2022-08-24T19:28:10.120Z,14.27
2022-08-24T19:33:20.423Z,13.30
2022-08-24T19:38:26.045Z,14.30
2022-08-24T19:43:30.752Z,13.27
2022-08-24T19:48:39.595Z,14.37
2022-08-24T19:53:43.640Z,13.70
2022-08-24T19:58:51.910Z,14.57
2022-08-24T20:03:56.524Z,13.00
2022-08-24T20:08:59.606Z,12.80
2022-08-24T20:14:03.346Z,14.53
2022-08-24T20:19:07.874Z,13.57
2022-08-24T20:24:11.335Z,15.20
2022-08-24T20:29:15.198Z,15.80
2022-08-24T20:34:20.479Z,14.10
2022-08-24T20:39:26.782Z,15.23
2022-08-24T20:44:29.805Z,14.50
2022-08-24T20:49:34.406Z,13.80
2022-08-24T20:54:39.604Z,15.13
2022-08-24T20:59:43.054Z,14.50
2022-08-24T21:04:47.565Z,14.80
2022-08-24T21:09:51.042Z,14.03
2022-08-24T21:14:54.339Z,13.57
2022-08-24T21:19:58.815Z,15.63
2022-08-24T21:25:01.859Z,14.43
2022-08-24T21:30:06.145Z,14.10
2022-08-24T21:35:11.151Z,13.30
2022-08-24T21:40:18.557Z,14.30
2022-08-24T21:45:21.906Z,14.17
2022-08-24T21:50:26.824Z,14.27
2022-08-24T21:55:29.924Z,13.50
2022-08-24T22:00:35.378Z,12.83
2022-08-24T22:05:39.754Z,12.90
2022-08-24T22:10:43.062Z,12.83
2022-08-24T22:15:47.328Z,13.90
2022-08-24T22:20:51.786Z,13.37
2022-08-24T22:25:55.608Z,13.00
2022-08-24T22:30:58.810Z,12.87
2022-08-24T22:36:03.499Z,12.77
2022-08-24T22:41:06.820Z,14.40
2022-08-24T22:46:09.984Z,13.83
2022-08-24T22:51:14.507Z,13.93
2022-08-24T22:56:19.944Z,13.80
2022-08-24T23:01:25.296Z,14.40
2022-08-24T23:06:30.931Z,14.03
2022-08-24T23:11:34.141Z,13.97
2022-08-24T23:16:39.663Z,14.10
2022-08-24T23:21:44.575Z,15.00
2022-08-24T23:26:47.540Z,14.23
2022-08-24T23:31:50.540Z,13.73
2022-08-24T23:36:54.949Z,13.53
2022-08-24T23:41:58.109Z,14.60
2022-08-24T23:47:01.556Z,14.47
2022-08-24T23:52:06.228Z,13.90
2022-08-24T23:57:09.284Z,14.27
